createdAt,value
2023-02-18T00:01:24.298Z,12.35
2023-02-18T00:03:52.600Z,12.28
2023-02-18T00:06:26.068Z,12.22
2023-02-18T00:08:54.399Z,12.26
2023-02-18T00:11:22.520Z,12.23
2023-02-18T00:13:55.871Z,12.26
2023-02-18T00:16:25.743Z,12.29
2023-02-18T00:18:58.017Z,12.28
2023-02-18T00:21:25.976Z,12.26
2023-02-18T00:23:53.732Z,12.15
2023-02-18T00:26:21.673Z,12.16
2023-02-18T00:28:51.476Z,12.14
2023-02-18T00:31:24.928Z,12.16
2023-02-18T00:33:52.895Z,12.22
2023-02-18T00:36:22.642Z,12.19
2023-02-18T00:38:55.444Z,12.10
2023-02-18T00:41:25.453Z,12.14
2023-02-18T00:43:53.431Z,12.07
2023-02-18T00:46:22.555Z,12.14
2023-02-18T00:48:50.109Z,12.19
2023-02-18T00:51:17.664Z,12.09
2023-02-18T00:53:45.277Z,12.03
2023-02-18T00:56:13.427Z,12.03
2023-02-18T00:58:43.362Z,12.02
2023-02-18T01:01:11.750Z,12.03
2023-02-18T01:03:42.648Z,12.04
2023-02-18T01:06:11.515Z,12.12
2023-02-18T01:08:40.640Z,12.04
2023-02-18T01:11:10.247Z,12.05
2023-02-18T01:13:38.165Z,12.13
2023-02-18T01:16:08.404Z,12.13
2023-02-18T01:18:37.372Z,12.10
2023-02-18T01:21:09.048Z,12.02
2023-02-18T01:23:38.748Z,12.05
2023-02-18T01:26:07.217Z,12.06
2023-02-18T01:28:35.646Z,12.06
2023-02-18T01:31:09.181Z,12.07
2023-02-18T01:33:37.485Z,12.00
2023-02-18T01:36:05.725Z,11.91
2023-02-18T01:38:33.237Z,11.87
2023-02-18T01:41:01.539Z,11.84
2023-02-18T01:43:30.052Z,11.87
2023-02-18T01:46:16.115Z,11.94
2023-02-18T01:48:51.568Z,11.89
2023-02-18T01:51:39.306Z,11.99
2023-02-18T01:54:13.884Z,12.01
2023-02-18T01:56:47.746Z,12.10
2023-02-18T01:59:21.683Z,12.03
2023-02-18T02:01:49.599Z,11.98
2023-02-18T02:04:17.039Z,11.99
2023-02-18T02:06:44.634Z,11.95
2023-02-18T02:09:15.593Z,11.89
2023-02-18T02:12:14.194Z,12.06
2023-02-18T02:15:08.937Z,11.94
2023-02-18T02:17:58.262Z,11.69
2023-02-18T02:20:34.652Z,11.70
2023-02-18T02:23:54.952Z,11.63
2023-02-18T02:26:31.361Z,11.77
2023-02-18T02:29:14.199Z,11.79
2023-02-18T02:31:47.849Z,11.78
2023-02-18T02:34:27.392Z,11.81
2023-02-18T02:37:31.769Z,11.88
2023-02-18T02:40:16.170Z,11.79
2023-02-18T02:42:43.664Z,11.75
2023-02-18T02:45:16.594Z,11.77
2023-02-18T02:48:28.996Z,11.78
2023-02-18T02:51:09.604Z,11.74
2023-02-18T02:53:40.076Z,11.63
2023-02-18T02:56:24.050Z,11.64
2023-02-18T02:59:06.513Z,11.70
2023-02-18T03:02:12.519Z,11.68
2023-02-18T03:04:43.517Z,11.69
2023-02-18T03:07:47.949Z,11.68
2023-02-18T03:10:34.260Z,11.63
2023-02-18T03:13:14.657Z,11.57
2023-02-18T03:15:57.147Z,11.64
2023-02-18T03:18:40.256Z,11.73
2023-02-18T03:21:23.700Z,11.69
2023-02-18T03:23:55.155Z,11.60
2023-02-18T03:26:25.840Z,11.54
2023-02-18T03:28:56.739Z,11.57
2023-02-18T03:31:28.884Z,11.56
2023-02-18T03:34:02.424Z,11.46
2023-02-18T03:36:31.531Z,11.38
2023-02-18T03:39:13.028Z,11.43
2023-02-18T03:41:40.727Z,11.43
2023-02-18T03:44:10.519Z,11.44
2023-02-18T03:46:41.038Z,11.35
2023-02-18T03:49:08.978Z,11.39
2023-02-18T03:51:36.471Z,11.44
2023-02-18T03:54:04.216Z,11.39
2023-02-18T03:56:31.832Z,11.37
2023-02-18T03:58:59.739Z,11.38
2023-02-18T04:01:27.377Z,11.37
2023-02-18T04:03:55.597Z,11.33
2023-02-18T04:06:24.372Z,11.37
2023-02-18T04:08:51.930Z,11.41
2023-02-18T04:11:19.495Z,11.42
2023-02-18T04:13:47.209Z,11.43
2023-02-18T04:16:14.835Z,11.43
2023-02-18T04:18:42.308Z,11.46
2023-02-18T04:21:09.846Z,11.54
2023-02-18T04:23:38.076Z,11.59
2023-02-18T04:26:05.584Z,11.58
2023-02-18T04:28:33.155Z,11.57
2023-02-18T04:31:00.658Z,11.46
2023-02-18T04:33:28.214Z,11.48
2023-02-18T04:35:55.701Z,11.49
2023-02-18T04:38:23.188Z,11.50
2023-02-18T04:40:50.493Z,11.55
2023-02-18T04:43:17.846Z,11.53
2023-02-18T04:45:45.130Z,11.43
2023-02-18T04:48:12.565Z,11.44
2023-02-18T04:50:40.386Z,11.40
2023-02-18T04:53:08.025Z,11.38
2023-02-18T04:55:35.608Z,11.44
2023-02-18T04:58:03.198Z,11.35
2023-02-18T05:00:30.597Z,11.34
2023-02-18T05:02:58.288Z,11.34
2023-02-18T05:05:25.759Z,11.41
2023-02-18T05:07:53.244Z,11.33
2023-02-18T05:10:21.001Z,11.34
2023-02-18T05:12:48.454Z,11.36
2023-02-18T05:15:15.792Z,11.34
2023-02-18T05:17:43.101Z,11.27
2023-02-18T05:20:11.307Z,11.30
2023-02-18T05:22:39.244Z,11.32
2023-02-18T05:25:07.621Z,11.22
2023-02-18T05:27:35.150Z,11.30
2023-02-18T05:30:02.634Z,11.27
2023-02-18T05:32:30.272Z,11.27
2023-02-18T05:34:57.713Z,11.23
2023-02-18T05:37:25.240Z,11.26
2023-02-18T05:39:52.676Z,11.27
2023-02-18T05:42:20.832Z,11.31
2023-02-18T05:44:48.170Z,11.35
2023-02-18T05:47:15.561Z,11.38
2023-02-18T05:49:43.420Z,11.32
2023-02-18T05:52:12.733Z,11.32
2023-02-18T05:54:40.510Z,11.31
2023-02-18T05:57:08.050Z,11.13
2023-02-18T05:59:35.449Z,11.02
2023-02-18T06:02:02.939Z,11.09
2023-02-18T06:04:30.347Z,11.11
2023-02-18T06:06:58.088Z,11.16
2023-02-18T06:09:25.680Z,11.11
2023-02-18T06:11:53.155Z,11.14
2023-02-18T06:14:20.381Z,11.13
2023-02-18T06:16:47.900Z,11.07
2023-02-18T06:19:15.321Z,11.02
2023-02-18T06:21:42.866Z,11.15
2023-02-18T06:24:10.434Z,11.05
2023-02-18T06:26:37.973Z,11.06
2023-02-18T06:29:05.413Z,11.07
2023-02-18T06:31:33.042Z,11.03
2023-02-18T06:34:00.688Z,11.02
2023-02-18T06:36:28.272Z,11.04
2023-02-18T06:38:57.651Z,11.05
2023-02-18T06:41:25.616Z,11.12
2023-02-18T06:43:53.052Z,11.15
2023-02-18T06:46:20.693Z,11.13
2023-02-18T06:48:48.310Z,11.01
2023-02-18T06:51:16.668Z,11.00
2023-02-18T06:53:44.228Z,10.97
2023-02-18T06:56:12.293Z,10.93
2023-02-18T06:58:42.439Z,10.97
2023-02-18T07:01:10.617Z,10.97
2023-02-18T07:03:38.260Z,10.94
2023-02-18T07:06:06.014Z,10.95
2023-02-18T07:08:36.264Z,10.95
2023-02-18T07:11:04.303Z,10.98
2023-02-18T07:13:31.671Z,11.03
2023-02-18T07:15:59.545Z,11.04
2023-02-18T07:18:26.998Z,11.02
2023-02-18T07:20:54.591Z,10.98
2023-02-18T07:23:22.384Z,11.00
2023-02-18T07:25:49.928Z,11.04
2023-02-18T07:28:17.387Z,11.02
2023-02-18T07:30:45.040Z,11.00
2023-02-18T07:33:14.331Z,11.15
2023-02-18T07:35:41.802Z,11.17
2023-02-18T07:38:09.044Z,11.11
2023-02-18T07:40:36.355Z,11.03
2023-02-18T07:43:03.859Z,11.06
2023-02-18T07:45:31.286Z,11.05
2023-02-18T07:47:58.737Z,11.01
2023-02-18T07:50:26.416Z,11.01
2023-02-18T07:52:53.845Z,11.04
2023-02-18T07:55:21.376Z,11.16
2023-02-18T07:57:57.700Z,11.12
2023-02-18T08:00:25.369Z,11.17
2023-02-18T08:02:52.866Z,11.14
2023-02-18T08:05:20.521Z,11.18
2023-02-18T08:07:47.958Z,11.24
2023-02-18T08:10:15.465Z,11.22
2023-02-18T08:12:42.997Z,11.14
2023-02-18T08:15:10.729Z,11.11
2023-02-18T08:17:38.143Z,11.11
2023-02-18T08:20:06.753Z,11.13
2023-02-18T08:22:34.357Z,11.17
2023-02-18T08:25:02.166Z,11.28
2023-02-18T08:27:29.665Z,11.32
2023-02-18T08:29:57.171Z,11.39
2023-02-18T08:32:28.560Z,11.46
2023-02-18T08:34:56.661Z,11.49
2023-02-18T08:37:24.546Z,11.51
2023-02-18T08:39:52.392Z,11.55
2023-02-18T08:42:20.115Z,11.50
2023-02-18T08:44:47.640Z,11.58
2023-02-18T08:48:18.755Z,11.54
2023-02-18T08:50:02.619Z,11.53
2023-02-18T08:52:30.235Z,11.55
2023-02-18T08:54:58.093Z,11.70
2023-02-18T08:57:25.565Z,11.84
2023-02-18T08:59:53.031Z,11.94
2023-02-18T09:02:20.445Z,12.02
2023-02-18T09:04:48.118Z,12.08
2023-02-18T09:07:15.659Z,12.18
2023-02-18T09:09:43.104Z,12.26
2023-02-18T09:12:10.449Z,12.31
2023-02-18T09:14:38.058Z,12.27
2023-02-18T09:17:05.691Z,12.37
2023-02-18T09:19:33.165Z,12.46
2023-02-18T09:22:00.895Z,12.52
2023-02-18T09:24:28.688Z,12.47
2023-02-18T09:26:56.184Z,12.45
2023-02-18T09:29:23.692Z,12.42
2023-02-18T09:31:51.239Z,12.34
2023-02-18T09:34:18.797Z,12.36
2023-02-18T09:36:46.078Z,12.52
2023-02-18T09:39:14.106Z,12.58
2023-02-18T09:41:48.460Z,12.65
2023-02-18T09:44:31.183Z,12.60
2023-02-18T09:47:12.885Z,12.61
2023-02-18T09:49:54.421Z,12.58
2023-02-18T09:52:28.185Z,12.58
2023-02-18T09:54:56.505Z,12.67
2023-02-18T09:57:38.269Z,12.65
2023-02-18T10:00:14.164Z,12.61
2023-02-18T10:03:17.926Z,12.63
2023-02-18T10:06:00.689Z,12.62
2023-02-18T10:08:31.484Z,12.72
2023-02-18T10:10:59.066Z,12.73
2023-02-18T10:13:30.048Z,12.76
2023-02-18T10:15:57.628Z,12.73
2023-02-18T10:18:41.221Z,12.78
2023-02-18T10:21:15.842Z,12.80
2023-02-18T10:23:54.918Z,12.71
2023-02-18T10:26:22.564Z,12.74
2023-02-18T10:28:52.576Z,12.82
2023-02-18T10:31:33.703Z,12.82
2023-02-18T10:34:16.167Z,12.70
2023-02-18T10:36:54.262Z,12.63
2023-02-18T10:39:32.339Z,12.62
2023-02-18T10:55:41.998Z,12.69
2023-02-18T10:58:30.210Z,12.74
2023-02-18T11:00:59.134Z,12.85
2023-02-18T11:03:45.393Z,12.92
2023-02-18T11:06:26.220Z,12.98
2023-02-18T11:08:56.906Z,13.00
2023-02-18T11:11:29.626Z,12.95
2023-02-18T11:14:02.378Z,12.96
2023-02-18T11:16:44.703Z,13.07
2023-02-18T11:19:58.113Z,13.31
2023-02-18T11:22:37.964Z,13.44
2023-02-18T11:25:22.680Z,13.48
2023-02-18T11:27:55.692Z,13.60
2023-02-18T11:30:27.947Z,13.69
2023-02-18T11:33:02.977Z,13.66
2023-02-18T11:35:32.390Z,13.68
2023-02-18T11:38:02.504Z,13.64
2023-02-18T11:40:36.122Z,13.64
2023-02-18T11:43:14.525Z,13.62
2023-02-18T11:45:42.613Z,13.55
2023-02-18T11:48:19.532Z,13.61
2023-02-18T11:50:52.333Z,13.60
2023-02-18T11:53:29.092Z,13.66
2023-02-18T11:56:02.283Z,13.72
2023-02-18T11:58:39.934Z,13.76
2023-02-18T12:01:20.801Z,13.86
2023-02-18T12:04:19.828Z,13.89
2023-02-18T12:07:12.283Z,13.93
2023-02-18T12:09:46.623Z,13.91
2023-02-18T12:12:27.587Z,13.82
2023-02-18T12:14:56.425Z,13.79
2023-02-18T12:17:45.925Z,13.76
2023-02-18T12:20:41.227Z,13.74
2023-02-18T12:23:36.862Z,13.74
2023-02-18T12:26:23.148Z,13.78
2023-02-18T12:29:15.259Z,13.76
2023-02-18T12:32:19.809Z,13.70
2023-02-18T12:35:04.634Z,13.62
2023-02-18T12:38:02.559Z,13.61
2023-02-18T12:40:45.277Z,13.58
2023-02-18T12:43:54.647Z,13.63
2023-02-18T12:46:50.859Z,13.69
2023-02-18T12:49:56.894Z,13.65
2023-02-18T12:52:33.425Z,13.70
2023-02-18T12:55:29.280Z,13.57
2023-02-18T12:58:06.026Z,13.53
2023-02-18T13:00:48.869Z,13.45
2023-02-18T13:03:19.360Z,13.40
2023-02-18T13:06:13.650Z,13.52
2023-02-18T13:08:41.056Z,13.54
2023-02-18T13:11:18.457Z,13.55
2023-02-18T13:13:54.946Z,13.70
2023-02-18T13:16:24.538Z,13.68
2023-02-18T13:19:00.938Z,13.76
2023-02-18T13:21:29.605Z,13.79
2023-02-18T13:24:02.632Z,13.71
2023-02-18T13:26:32.866Z,13.67
2023-02-18T13:29:22.724Z,13.71
2023-02-18T13:32:10.951Z,13.81
2023-02-18T13:34:48.724Z,13.86
2023-02-18T13:37:33.384Z,13.84
2023-02-18T13:40:02.243Z,13.85
2023-02-18T13:42:36.350Z,13.85
2023-02-18T13:45:07.427Z,13.82
2023-02-18T13:47:45.174Z,13.91
2023-02-18T13:50:30.991Z,13.95
2023-02-18T13:53:20.219Z,13.88
2023-02-18T13:55:59.057Z,13.85
2023-02-18T13:58:44.261Z,13.86
2023-02-18T14:01:20.004Z,13.77
2023-02-18T14:03:47.590Z,13.72
2023-02-18T14:06:15.095Z,13.66
2023-02-18T14:08:43.750Z,13.70
2023-02-18T14:11:14.486Z,13.70
2023-02-18T14:13:54.356Z,13.64
2023-02-18T14:16:22.217Z,13.67
2023-02-18T14:19:01.676Z,13.66
2023-02-18T14:21:37.265Z,13.72
2023-02-18T14:24:07.774Z,13.64
2023-02-18T14:26:44.448Z,13.63
2023-02-18T14:29:14.279Z,13.66
2023-02-18T14:32:04.964Z,13.61
2023-02-18T14:34:41.833Z,13.51
2023-02-18T14:37:30.876Z,13.51
2023-02-18T14:40:19.687Z,13.53
2023-02-18T14:43:02.292Z,13.47
2023-02-18T14:45:49.925Z,13.43
2023-02-18T14:48:37.589Z,13.43
2023-02-18T14:51:06.089Z,13.41
2023-02-18T14:53:45.174Z,13.46
2023-02-18T14:56:16.433Z,13.43
2023-02-18T14:58:48.603Z,13.42
2023-02-18T15:01:27.722Z,13.40
2023-02-18T15:03:56.699Z,13.46
2023-02-18T15:06:38.524Z,13.44
2023-02-18T15:09:22.635Z,13.48
2023-02-18T15:11:55.107Z,13.58
2023-02-18T15:14:27.709Z,13.40
2023-02-18T15:16:56.172Z,13.41
2023-02-18T15:19:28.422Z,13.50
2023-02-18T15:21:57.743Z,13.46
2023-02-18T15:24:33.276Z,13.41
2023-02-18T15:27:11.506Z,13.45
2023-02-18T15:29:39.397Z,13.36
2023-02-18T15:32:22.908Z,13.32
2023-02-18T15:34:53.000Z,13.35
2023-02-18T15:37:20.567Z,13.30
2023-02-18T15:39:48.710Z,13.33
2023-02-18T15:42:27.564Z,13.25
2023-02-18T15:45:22.215Z,13.33
2023-02-18T15:47:59.767Z,13.22
2023-02-18T15:50:45.229Z,13.22
2023-02-18T15:53:18.275Z,13.26
2023-02-18T15:55:53.998Z,13.26
2023-02-18T15:58:31.313Z,13.24
2023-02-18T16:01:07.700Z,13.24
2023-02-18T16:03:41.369Z,13.29
2023-02-18T16:06:30.758Z,13.28
2023-02-18T16:09:17.130Z,13.26
2023-02-18T16:11:51.480Z,13.27
2023-02-18T16:14:46.598Z,13.23
2023-02-18T16:17:28.961Z,13.23
2023-02-18T16:20:04.398Z,13.17
2023-02-18T16:22:42.051Z,13.12
2023-02-18T16:25:18.736Z,13.12
2023-02-18T16:28:03.687Z,13.11
2023-02-18T16:30:33.177Z,13.11
2023-02-18T16:33:01.062Z,13.03
2023-02-18T16:35:43.953Z,13.09
2023-02-18T16:38:22.049Z,13.01
2023-02-18T16:40:50.127Z,12.98
2023-02-18T16:43:23.416Z,12.92
2023-02-18T16:45:53.840Z,12.84
2023-02-18T16:48:28.212Z,12.93
2023-02-18T16:50:56.136Z,12.98
2023-02-18T16:53:23.898Z,12.96
2023-02-18T16:55:51.965Z,12.96
2023-02-18T16:58:19.549Z,12.91
2023-02-18T17:00:49.166Z,12.89
2023-02-18T17:03:17.017Z,12.87
2023-02-18T17:05:44.702Z,12.86
2023-02-18T17:08:23.892Z,12.84
2023-02-18T17:10:58.766Z,12.85
2023-02-18T17:13:29.805Z,12.82
2023-02-18T17:15:58.776Z,12.84
2023-02-18T17:18:26.568Z,12.75
2023-02-18T17:20:54.802Z,12.75
2023-02-18T17:23:23.996Z,12.73
2023-02-18T17:25:52.798Z,12.67
2023-02-18T17:28:20.615Z,12.72
2023-02-18T17:30:53.350Z,12.68
2023-02-18T17:33:20.912Z,12.72
2023-02-18T17:35:48.427Z,12.68
2023-02-18T17:38:18.034Z,12.61
2023-02-18T17:40:46.063Z,12.60
2023-02-18T17:43:15.426Z,12.60
2023-02-18T17:45:48.704Z,12.57
2023-02-18T17:48:16.205Z,12.69
2023-02-18T17:50:43.616Z,12.57
2023-02-18T17:53:13.089Z,12.58
2023-02-18T17:55:42.806Z,12.61
2023-02-18T17:58:11.322Z,12.65
2023-02-18T18:00:54.939Z,12.68
2023-02-18T18:03:22.772Z,12.60
2023-02-18T18:05:52.297Z,12.62
2023-02-18T18:08:19.808Z,12.60
2023-02-18T18:10:50.586Z,12.51
2023-02-18T18:13:30.144Z,12.45
2023-02-18T18:15:58.253Z,12.43
2023-02-18T18:18:27.228Z,12.44
2023-02-18T18:20:59.583Z,12.47
2023-02-18T18:23:29.465Z,12.45
2023-02-18T18:25:58.533Z,12.46
2023-02-18T18:28:27.307Z,12.45
2023-02-18T18:30:56.886Z,12.43
2023-02-18T18:33:27.388Z,12.42
2023-02-18T18:35:57.328Z,12.43
2023-02-18T18:38:27.203Z,12.46
2023-02-18T18:40:55.739Z,12.44
2023-02-18T18:43:32.194Z,12.53
2023-02-18T18:46:00.783Z,12.62
2023-02-18T18:48:28.644Z,12.58
2023-02-18T18:50:59.774Z,12.54
2023-02-18T18:53:30.835Z,12.49
2023-02-18T18:56:04.986Z,12.52
2023-02-18T18:58:32.994Z,12.47
2023-02-18T19:01:04.071Z,12.43
2023-02-18T19:03:33.989Z,12.44
2023-02-18T19:06:01.525Z,12.44
2023-02-18T19:08:29.417Z,12.38
2023-02-18T19:10:57.572Z,12.39
2023-02-18T19:13:30.323Z,12.44
2023-02-18T19:16:06.308Z,12.43
2023-02-18T19:18:34.069Z,12.41
2023-02-18T19:21:10.594Z,12.40
2023-02-18T19:23:38.996Z,12.41
2023-02-18T19:26:07.697Z,12.43
2023-02-18T19:28:35.498Z,12.46
2023-02-18T19:31:07.661Z,12.47
2023-02-18T19:33:35.700Z,12.45
2023-02-18T19:36:10.923Z,12.45
2023-02-18T19:38:39.396Z,12.46
2023-02-18T19:41:15.591Z,12.45
2023-02-18T19:43:44.758Z,12.48
2023-02-18T19:46:15.430Z,12.52
2023-02-18T19:48:43.268Z,12.55
2023-02-18T19:51:10.915Z,12.46
2023-02-18T19:53:38.788Z,12.40
2023-02-18T19:56:07.576Z,12.45
2023-02-18T19:58:36.408Z,12.47
2023-02-18T20:01:04.548Z,12.43
2023-02-18T20:03:32.062Z,12.46
2023-02-18T20:05:59.597Z,12.40
2023-02-18T20:08:27.286Z,12.37
2023-02-18T20:10:58.988Z,12.30
2023-02-18T20:13:26.892Z,12.29
2023-02-18T20:15:54.384Z,12.27
2023-02-18T20:18:21.885Z,12.30
2023-02-18T20:20:50.920Z,12.33
2023-02-18T20:23:18.702Z,12.32
2023-02-18T20:25:47.771Z,12.32
2023-02-18T20:28:15.860Z,12.32
2023-02-18T20:30:44.380Z,12.34
2023-02-18T20:33:11.961Z,12.34
2023-02-18T20:35:39.446Z,12.37
2023-02-18T20:38:07.211Z,12.43
2023-02-18T20:40:34.643Z,12.38
2023-02-18T20:43:02.088Z,12.36
2023-02-18T20:45:29.430Z,12.30
2023-02-18T20:47:56.797Z,12.31
2023-02-18T20:50:24.261Z,12.40
2023-02-18T20:52:52.755Z,12.36
2023-02-18T20:55:20.241Z,12.28
2023-02-18T20:57:47.773Z,12.25
2023-02-18T21:00:15.884Z,12.25
2023-02-18T21:02:43.621Z,12.34
2023-02-18T21:05:11.238Z,12.46
2023-02-18T21:07:38.834Z,12.40
2023-02-18T21:10:06.786Z,12.44
2023-02-18T21:12:34.557Z,12.40
2023-02-18T21:15:02.246Z,12.42
2023-02-18T21:17:29.688Z,12.35
2023-02-18T21:19:57.140Z,12.33
2023-02-18T21:22:24.884Z,12.31
2023-02-18T21:24:53.577Z,12.37
2023-02-18T21:27:21.093Z,12.34
2023-02-18T21:29:48.520Z,12.26
2023-02-18T21:32:16.425Z,12.22
2023-02-18T21:34:43.898Z,12.20
2023-02-18T21:37:11.461Z,12.24
2023-02-18T21:39:38.955Z,12.38
2023-02-18T21:42:06.912Z,12.48
2023-02-18T21:44:42.401Z,12.35
2023-02-18T21:47:11.939Z,12.36
2023-02-18T21:49:39.646Z,12.43
2023-02-18T21:52:10.314Z,12.27
2023-02-18T21:54:40.343Z,12.16
2023-02-18T21:57:12.339Z,12.24
2023-02-18T21:59:40.795Z,12.30
2023-02-18T22:02:16.051Z,12.23
2023-02-18T22:04:43.601Z,12.21
2023-02-18T22:07:11.023Z,12.21
2023-02-18T22:09:38.675Z,12.22
2023-02-18T22:12:06.518Z,12.19
2023-02-18T22:14:34.107Z,12.24
2023-02-18T22:17:01.708Z,12.17
2023-02-18T22:19:29.189Z,12.05
2023-02-18T22:21:56.758Z,12.13
2023-02-18T22:24:24.995Z,12.10
2023-02-18T22:26:52.536Z,12.01
2023-02-18T22:29:20.590Z,12.02
2023-02-18T22:31:49.622Z,11.99
2023-02-18T22:34:17.296Z,12.00
2023-02-18T22:36:45.359Z,11.92
2023-02-18T22:39:15.444Z,11.79
2023-02-18T22:41:43.886Z,11.72
2023-02-18T22:44:14.613Z,11.69
2023-02-18T22:46:42.443Z,11.78
2023-02-18T22:49:11.378Z,11.77
2023-02-18T22:51:41.728Z,11.85
2023-02-18T22:54:15.390Z,11.87
2023-02-18T22:56:43.466Z,11.93
2023-02-18T22:59:12.576Z,11.99
2023-02-18T23:01:42.145Z,11.95
2023-02-18T23:04:15.010Z,12.02
2023-02-18T23:06:45.199Z,11.92
2023-02-18T23:09:19.551Z,11.95
2023-02-18T23:11:52.852Z,11.85
2023-02-18T23:14:24.240Z,11.84
2023-02-18T23:17:14.556Z,11.75
2023-02-18T23:19:48.768Z,11.88
2023-02-18T23:22:25.230Z,11.88
2023-02-18T23:24:52.707Z,12.00
2023-02-18T23:27:20.395Z,11.98
2023-02-18T23:29:48.383Z,12.01
2023-02-18T23:32:16.011Z,11.84
2023-02-18T23:34:43.857Z,11.82
2023-02-18T23:37:11.654Z,11.85
2023-02-18T23:39:40.089Z,11.81
2023-02-18T23:42:08.377Z,11.67
2023-02-18T23:44:35.833Z,11.77
2023-02-18T23:47:03.307Z,11.84
2023-02-18T23:49:30.766Z,11.79
2023-02-18T23:51:58.345Z,11.75
2023-02-18T23:54:26.044Z,11.69
2023-02-18T23:56:53.520Z,11.66
2023-02-18T23:59:21.088Z,11.70
